Time;durP1;ratioP1;P1;durP2;ratioP2;P2;SDS_P1;SDS_P2;PMS_P1;PMS_P2;Temp;Humidity;BMP_temperature;BMP_pressure;BME280_temperature;BME280_humidity;BME280_pressure;Samples;Min_cycle;Max_cycle;Signal;HPM_P1;HPM_P2
2023/07/29 00:00:27;;;;;;;;;;;20.10;96.10;;;;;;5086087;28;19912;-66
2023/07/29 00:02:53;;;;;;;;;;;20.10;96.10;;;;;;5093896;28;19920;-66
2023/07/29 00:05:18;;;;;;;;;;;20.10;96.10;;;;;;5071429;28;20053;-67
2023/07/29 00:07:44;;;;;;;;;;;20.10;96.10;;;;;;5090325;28;19916;-66
2023/07/29 00:10:09;;;;;;;;;;;20.10;96.10;;;;;;5091271;28;19908;-67
2023/07/29 00:12:35;;;;;;;;;;;20.00;96.10;;;;;;5091017;28;20320;-66
2023/07/29 00:15:00;;;;;;;;;;;20.00;96.00;;;;;;5097440;28;19915;-66
2023/07/29 00:17:26;;;;;;;;;;;20.00;96.20;;;;;;5111178;28;19954;-66
2023/07/29 00:19:52;;;;;;;;;;;20.00;96.10;;;;;;5091765;28;20376;-66
2023/07/29 00:22:17;;;;;;;;;;;20.00;96.10;;;;;;5090816;28;20428;-66
2023/07/29 00:24:43;;;;;;;;;;;20.00;96.40;;;;;;5099977;28;19920;-66
2023/07/29 00:27:08;;;;;;;;;;;20.00;96.20;;;;;;5110970;28;20000;-67
2023/07/29 00:29:33;;;;;;;;;;;19.90;96.20;;;;;;5111067;28;19912;-67
2023/07/29 00:31:59;;;;;;;;;;;19.90;96.10;;;;;;5098276;28;19924;-67
2023/07/29 00:34:24;;;;;;;;;;;19.90;96.10;;;;;;5079514;28;20273;-66
2023/07/29 00:36:50;;;;;;;;;;;19.90;96.20;;;;;;5072983;28;19945;-66
2023/07/29 00:39:15;;;;;;;;;;;19.90;96.20;;;;;;5110512;28;19946;-66
2023/07/29 00:41:41;;;;;;;;;;;19.90;96.20;;;;;;5111094;28;19912;-67
2023/07/29 00:44:06;;;;;;;;;;;19.90;96.30;;;;;;5110925;28;20369;-66
2023/07/29 00:46:34;;;;;;;;;;;19.90;96.40;;;;;;5110669;28;19919;-66
2023/07/29 00:49:00;;;;;;;;;;;19.80;96.30;;;;;;5097300;28;20392;-67
2023/07/29 00:51:25;;;;;;;;;;;19.80;96.30;;;;;;5090099;28;19912;-67
2023/07/29 00:53:51;;;;;;;;;;;19.80;96.30;;;;;;5091901;28;20365;-66
2023/07/29 00:56:16;;;;;;;;;;;19.80;96.30;;;;;;5110498;28;20668;-67
2023/07/29 00:58:42;;;;;;;;;;;19.80;96.20;;;;;;5110445;28;19919;-67
2023/07/29 01:01:07;;;;;;;;;;;19.80;96.30;;;;;;5091356;28;20673;-66
2023/07/29 01:03:33;;;;;;;;;;;19.80;96.30;;;;;;5071795;28;19915;-67
2023/07/29 01:05:58;;;;;;;;;;;19.80;96.30;;;;;;5101409;28;19916;-66
2023/07/29 01:08:33;;;;;;;;;;;19.80;96.40;;;;;;5089774;28;20010;-66
2023/07/29 01:11:03;;;;;;;;;;;19.80;96.30;;;;;;5089966;28;19955;-66
2023/07/29 01:13:36;;;;;;;;;;;19.80;96.40;;;;;;5089731;28;19912;-66
2023/07/29 01:16:06;;;;;;;;;;;19.70;96.40;;;;;;5071399;28;20046;-66
2023/07/29 01:18:32;;;;;;;;;;;19.70;96.50;;;;;;5089833;28;20330;-67
2023/07/29 01:21:03;;;;;;;;;;;19.70;96.40;;;;;;5090884;28;19924;-66
2023/07/29 01:23:29;;;;;;;;;;;19.70;96.30;;;;;;5089747;28;19988;-66
2023/07/29 01:25:54;;;;;;;;;;;19.70;96.40;;;;;;5108227;28;19920;-66
2023/07/29 01:28:20;;;;;;;;;;;19.60;96.30;;;;;;5109377;28;19911;-67
2023/07/29 01:30:48;;;;;;;;;;;19.60;96.30;;;;;;5089816;28;19935;-66
2023/07/29 01:33:20;;;;;;;;;;;19.60;96.50;;;;;;5076170;28;19919;-67
2023/07/29 01:35:50;;;;;;;;;;;19.60;96.50;;;;;;5068895;28;19913;-67
2023/07/29 01:38:35;;;;;;;;;;;19.60;96.50;;;;;;5086221;28;19923;-66
2023/07/29 01:41:02;;;;;;;;;;;19.60;96.60;;;;;;5071267;28;19912;-66
2023/07/29 01:43:31;;;;;;;;;;;19.60;96.70;;;;;;5088931;28;19912;-66
2023/07/29 01:45:56;;;;;;;;;;;19.60;96.90;;;;;;5088977;28;19919;-66
2023/07/29 01:48:22;;;;;;;;;;;19.50;96.80;;;;;;5089198;28;19912;-67
2023/07/29 01:50:48;;;;;;;;;;;19.50;96.50;;;;;;5089316;28;19924;-66
2023/07/29 01:53:13;;;;;;;;;;;19.50;96.60;;;;;;5090450;28;19919;-66
2023/07/29 01:55:39;;;;;;;;;;;19.50;96.60;;;;;;5105446;28;20331;-66
2023/07/29 01:58:05;;;;;;;;;;;19.50;96.50;;;;;;5109592;28;19918;-66
2023/07/29 02:00:30;;;;;;;;;;;19.50;96.60;;;;;;5095622;28;19924;-66
2023/07/29 02:02:55;;;;;;;;;;;19.50;96.50;;;;;;5081636;28;19918;-67
2023/07/29 02:05:21;;;;;;;;;;;19.50;96.60;;;;;;5083660;28;20358;-67
2023/07/29 02:07:46;;;;;;;;;;;19.40;96.70;;;;;;5088899;28;19912;-67
2023/07/29 02:10:12;;;;;;;;;;;19.40;96.70;;;;;;5089852;28;20396;-67
2023/07/29 02:12:37;;;;;;;;;;;19.40;96.70;;;;;;5088904;28;19965;-66
2023/07/29 02:15:04;;;;;;;;;;;19.40;96.60;;;;;;5088496;28;20467;-66
2023/07/29 02:17:30;;;;;;;;;;;19.40;96.50;;;;;;5088582;28;19931;-67
2023/07/29 02:19:55;;;;;;;;;;;19.40;96.60;;;;;;5088270;28;20230;-67
2023/07/29 02:22:21;;;;;;;;;;;19.40;96.60;;;;;;5088392;28;19915;-66
2023/07/29 02:24:46;;;;;;;;;;;19.40;96.60;;;;;;5098449;28;19919;-66
2023/07/29 02:27:12;;;;;;;;;;;19.40;96.60;;;;;;5097458;28;19916;-66
2023/07/29 02:29:37;;;;;;;;;;;19.40;96.70;;;;;;5088520;28;19912;-66
2023/07/29 02:32:03;;;;;;;;;;;19.40;96.70;;;;;;5088537;28;19934;-67
2023/07/29 02:34:29;;;;;;;;;;;19.40;96.70;;;;;;5088326;28;20662;-66
2023/07/29 02:36:54;;;;;;;;;;;19.40;96.80;;;;;;5087939;28;19912;-66
2023/07/29 02:39:20;;;;;;;;;;;19.40;96.80;;;;;;5094868;28;19912;-66
2023/07/29 02:41:45;;;;;;;;;;;19.40;96.80;;;;;;5108746;28;20317;-67
2023/07/29 02:44:11;;;;;;;;;;;19.30;96.60;;;;;;5105957;28;19916;-66
2023/07/29 02:46:36;;;;;;;;;;;19.30;96.70;;;;;;5076211;28;19922;-67
2023/07/29 02:49:03;;;;;;;;;;;19.30;96.70;;;;;;5108482;28;19919;-66
2023/07/29 02:51:28;;;;;;;;;;;19.30;96.70;;;;;;5088929;28;19955;-67
2023/07/29 02:53:54;;;;;;;;;;;19.30;96.70;;;;;;5071748;28;19947;-66
2023/07/29 02:56:19;;;;;;;;;;;19.30;96.70;;;;;;5107952;28;19915;-66
2023/07/29 02:58:45;;;;;;;;;;;19.30;96.70;;;;;;5088547;28;20003;-66
2023/07/29 03:01:10;;;;;;;;;;;19.30;97.00;;;;;;5087397;28;19916;-66
2023/07/29 03:03:36;;;;;;;;;;;19.30;96.80;;;;;;5087626;28;19908;-67
2023/07/29 03:06:02;;;;;;;;;;;19.30;96.80;;;;;;5087695;28;19926;-66
2023/07/29 03:08:28;;;;;;;;;;;19.30;97.00;;;;;;5088028;28;19916;-66
2023/07/29 03:10:54;;;;;;;;;;;19.30;96.90;;;;;;5088089;28;19965;-67
2023/07/29 03:13:19;;;;;;;;;;;19.30;96.80;;;;;;5087918;28;19912;-67
2023/07/29 03:15:45;;;;;;;;;;;19.30;96.80;;;;;;5088767;28;19978;-66
2023/07/29 03:18:10;;;;;;;;;;;19.30;96.80;;;;;;5088030;28;20337;-67
2023/07/29 03:20:35;;;;;;;;;;;19.30;96.80;;;;;;5069791;28;19914;-66
2023/07/29 03:23:01;;;;;;;;;;;19.30;96.80;;;;;;5087963;28;19969;-66
2023/07/29 03:25:27;;;;;;;;;;;19.30;97.00;;;;;;5102208;28;19934;-66
2023/07/29 03:27:52;;;;;;;;;;;19.30;97.00;;;;;;5108330;28;19911;-66
2023/07/29 03:30:19;;;;;;;;;;;19.30;96.90;;;;;;5089659;28;20500;-66
2023/07/29 03:32:47;;;;;;;;;;;19.30;97.00;;;;;;5098702;28;19916;-66
2023/07/29 03:35:13;;;;;;;;;;;19.30;96.90;;;;;;5091332;28;19955;-66
2023/07/29 03:37:38;;;;;;;;;;;19.30;96.90;;;;;;5091636;28;19950;-66
2023/07/29 03:40:05;;;;;;;;;;;19.30;97.00;;;;;;5073495;28;19912;-66
2023/07/29 03:42:30;;;;;;;;;;;19.30;97.00;;;;;;5073530;28;20428;-66
2023/07/29 03:44:56;;;;;;;;;;;19.30;97.00;;;;;;5091749;28;20002;-66
2023/07/29 03:47:21;;;;;;;;;;;19.30;96.90;;;;;;5091285;28;19942;-66
2023/07/29 03:49:47;;;;;;;;;;;19.30;96.90;;;;;;5102484;28;20627;-67
2023/07/29 03:52:12;;;;;;;;;;;19.30;97.00;;;;;;5111808;28;20356;-66
2023/07/29 03:54:38;;;;;;;;;;;19.30;97.00;;;;;;5110919;28;19915;-66
2023/07/29 03:57:03;;;;;;;;;;;19.20;96.90;;;;;;5093381;28;19918;-66
2023/07/29 03:59:29;;;;;;;;;;;19.30;97.00;;;;;;5109899;28;20406;-66
2023/07/29 04:01:54;;;;;;;;;;;19.20;96.90;;;;;;5087922;28;19912;-66
2023/07/29 04:04:20;;;;;;;;;;;19.20;97.00;;;;;;5087817;28;20284;-66
2023/07/29 04:06:46;;;;;;;;;;;19.20;96.90;;;;;;5078190;28;19916;-66
2023/07/29 04:09:11;;;;;;;;;;;19.20;97.10;;;;;;5089725;28;19919;-67
2023/07/29 04:11:37;;;;;;;;;;;19.20;97.00;;;;;;5090754;28;19912;-66
2023/07/29 04:14:02;;;;;;;;;;;19.20;96.90;;;;;;5090953;28;19912;-66
2023/07/29 04:16:28;;;;;;;;;;;19.20;96.90;;;;;;5072509;28;20365;-66
2023/07/29 04:18:54;;;;;;;;;;;19.20;96.90;;;;;;5090646;28;19919;-67
2023/07/29 04:21:19;;;;;;;;;;;19.20;96.90;;;;;;5091116;28;19912;-67
2023/07/29 04:23:45;;;;;;;;;;;19.20;96.90;;;;;;5091728;28;19916;-66
2023/07/29 04:26:10;;;;;;;;;;;19.20;96.90;;;;;;5109623;28;19918;-67
2023/07/29 04:28:36;;;;;;;;;;;19.20;97.00;;;;;;5109438;28;20670;-66
2023/07/29 04:31:02;;;;;;;;;;;19.20;96.90;;;;;;5109670;28;19926;-67
2023/07/29 04:33:29;;;;;;;;;;;19.20;96.90;;;;;;5091245;28;20022;-67
2023/07/29 04:35:54;;;;;;;;;;;19.20;96.90;;;;;;5070646;28;19916;-66
2023/07/29 04:38:20;;;;;;;;;;;19.30;96.80;;;;;;5093190;28;19916;-66
2023/07/29 04:40:45;;;;;;;;;;;19.20;96.80;;;;;;5109605;28;19912;-66
2023/07/29 04:43:11;;;;;;;;;;;19.20;96.80;;;;;;5109274;28;20325;-66
2023/07/29 04:45:41;;;;;;;;;;;19.20;96.80;;;;;;5109166;28;19912;-67
2023/07/29 04:48:07;;;;;;;;;;;19.20;96.90;;;;;;5104918;28;20618;-66
2023/07/29 04:50:32;;;;;;;;;;;19.20;96.90;;;;;;5109288;28;19911;-66
2023/07/29 04:52:58;;;;;;;;;;;19.20;96.90;;;;;;5109554;28;19954;-66
2023/07/29 04:55:23;;;;;;;;;;;19.20;96.90;;;;;;5079529;28;20317;-66
2023/07/29 04:57:49;;;;;;;;;;;19.20;96.90;;;;;;5088931;28;19912;-66
2023/07/29 05:00:16;;;;;;;;;;;19.30;97.00;;;;;;5088436;28;19912;-67
2023/07/29 05:02:41;;;;;;;;;;;19.30;96.90;;;;;;5088294;28;19918;-66
2023/07/29 05:05:07;;;;;;;;;;;19.30;97.00;;;;;;5091336;28;20011;-66
2023/07/29 05:07:33;;;;;;;;;;;19.30;97.00;;;;;;5088426;28;19912;-66
2023/07/29 05:09:58;;;;;;;;;;;19.30;97.00;;;;;;5088600;28;19919;-66
2023/07/29 05:12:24;;;;;;;;;;;19.20;97.00;;;;;;5088796;28;20002;-66
2023/07/29 05:14:49;;;;;;;;;;;19.30;97.00;;;;;;5088579;28;20361;-66
2023/07/29 05:17:15;;;;;;;;;;;19.30;97.00;;;;;;5090946;28;19977;-66
2023/07/29 05:19:40;;;;;;;;;;;19.30;97.10;;;;;;5109079;28;19925;-66
2023/07/29 05:22:06;;;;;;;;;;;19.30;97.10;;;;;;5108863;28;19958;-66
2023/07/29 05:24:31;;;;;;;;;;;19.30;97.10;;;;;;5043719;28;1816280;-66
2023/07/29 05:26:57;;;;;;;;;;;19.30;97.20;;;;;;5109459;28;20365;-66
2023/07/29 05:29:22;;;;;;;;;;;19.30;97.20;;;;;;5109788;28;19919;-66
2023/07/29 05:31:48;;;;;;;;;;;19.30;97.20;;;;;;5105213;28;19950;-66
2023/07/29 05:34:13;;;;;;;;;;;19.30;97.10;;;;;;5092825;28;19916;-66
2023/07/29 05:36:39;;;;;;;;;;;19.30;97.00;;;;;;5088851;28;20409;-66
2023/07/29 05:39:04;;;;;;;;;;;19.30;97.00;;;;;;5088736;28;19919;-66
2023/07/29 05:41:30;;;;;;;;;;;19.30;97.00;;;;;;5089093;28;19912;-66
2023/07/29 05:43:55;;;;;;;;;;;19.30;97.00;;;;;;5089235;28;19950;-67
2023/07/29 05:46:21;;;;;;;;;;;19.30;97.00;;;;;;5088847;28;19994;-66
2023/07/29 05:48:46;;;;;;;;;;;19.40;97.10;;;;;;5089076;28;20543;-66
2023/07/29 05:51:12;;;;;;;;;;;19.40;97.10;;;;;;5090001;28;19923;-66
2023/07/29 05:53:37;;;;;;;;;;;19.40;97.20;;;;;;5088434;28;19920;-66
2023/07/29 05:56:03;;;;;;;;;;;19.40;97.10;;;;;;5108069;28;19964;-66
2023/07/29 05:58:31;;;;;;;;;;;19.40;97.10;;;;;;5090660;28;19907;-66
2023/07/29 06:00:57;;;;;;;;;;;19.40;97.00;;;;;;5091390;28;19912;-66
2023/07/29 06:03:22;;;;;;;;;;;19.40;97.00;;;;;;5088820;28;19919;-66
2023/07/29 06:05:48;;;;;;;;;;;19.40;97.00;;;;;;5088567;28;20389;-66
2023/07/29 06:08:14;;;;;;;;;;;19.40;97.10;;;;;;5090031;28;19912;-66
2023/07/29 06:10:39;;;;;;;;;;;19.40;97.00;;;;;;5070843;28;19965;-67
2023/07/29 06:13:05;;;;;;;;;;;19.40;97.10;;;;;;5093190;28;20404;-66
2023/07/29 06:15:31;;;;;;;;;;;19.40;97.20;;;;;;5108871;28;19922;-66
2023/07/29 06:17:56;;;;;;;;;;;19.40;97.30;;;;;;5095590;28;20681;-66
2023/07/29 06:20:22;;;;;;;;;;;19.40;97.20;;;;;;5089006;28;20427;-66
2023/07/29 06:22:47;;;;;;;;;;;19.40;97.10;;;;;;5088988;28;20018;-66
2023/07/29 06:25:13;;;;;;;;;;;19.50;97.20;;;;;;5102049;28;20014;-66
2023/07/29 06:27:38;;;;;;;;;;;19.50;97.20;;;;;;5100283;28;19977;-66
2023/07/29 06:30:04;;;;;;;;;;;19.50;97.20;;;;;;5088503;28;20387;-66
2023/07/29 06:32:30;;;;;;;;;;;19.50;97.10;;;;;;5088343;28;19909;-66
2023/07/29 06:34:55;;;;;;;;;;;19.50;97.10;;;;;;5088190;28;20357;-66
2023/07/29 06:37:21;;;;;;;;;;;19.50;97.10;;;;;;5088352;28;19920;-66
2023/07/29 06:39:47;;;;;;;;;;;19.50;97.20;;;;;;5070217;28;19966;-66
2023/07/29 06:42:12;;;;;;;;;;;19.50;97.00;;;;;;5088590;28;20465;-66
2023/07/29 06:44:38;;;;;;;;;;;19.50;97.00;;;;;;5088317;28;19922;-66
2023/07/29 06:47:04;;;;;;;;;;;19.50;97.00;;;;;;5087719;28;20011;-66
2023/07/29 06:49:29;;;;;;;;;;;19.50;97.00;;;;;;5088242;28;19912;-66
2023/07/29 06:51:55;;;;;;;;;;;19.50;96.90;;;;;;5088395;28;19908;-66
2023/07/29 06:54:24;;;;;;;;;;;19.50;96.90;;;;;;5101806;28;19911;-66
2023/07/29 06:56:49;;;;;;;;;;;19.50;96.90;;;;;;5108056;28;19912;-66
2023/07/29 06:59:15;;;;;;;;;;;19.60;97.00;;;;;;5089556;28;19916;-66
2023/07/29 07:01:40;;;;;;;;;;;19.50;96.90;;;;;;5084808;28;20332;-66
2023/07/29 07:04:06;;;;;;;;;;;19.50;96.80;;;;;;5087699;28;19943;-66
2023/07/29 07:06:31;;;;;;;;;;;19.60;96.90;;;;;;5069284;28;19962;-66
2023/07/29 07:08:57;;;;;;;;;;;19.60;96.80;;;;;;5088056;28;20317;-65
2023/07/29 07:11:22;;;;;;;;;;;19.60;96.80;;;;;;5087992;28;19912;-66
2023/07/29 07:13:48;;;;;;;;;;;19.60;96.80;;;;;;5091402;28;19916;-66
2023/07/29 07:16:13;;;;;;;;;;;19.50;96.70;;;;;;5093936;28;19920;-66
2023/07/29 07:18:39;;;;;;;;;;;19.60;96.70;;;;;;5108199;28;20016;-66
2023/07/29 07:21:04;;;;;;;;;;;19.60;96.70;;;;;;5107875;28;19912;-66
2023/07/29 07:23:30;;;;;;;;;;;19.60;96.70;;;;;;5083235;28;19999;-66
2023/07/29 07:25:55;;;;;;;;;;;19.60;96.70;;;;;;5088657;28;19916;-66
2023/07/29 07:28:21;;;;;;;;;;;19.50;96.70;;;;;;5090428;28;19916;-66
2023/07/29 07:30:46;;;;;;;;;;;19.60;96.70;;;;;;5089821;28;20394;-66
2023/07/29 07:33:12;;;;;;;;;;;19.60;96.60;;;;;;5072412;28;19920;-66
2023/07/29 07:35:37;;;;;;;;;;;19.60;96.60;;;;;;5086630;28;19928;-66
2023/07/29 07:38:04;;;;;;;;;;;19.60;96.50;;;;;;5086935;28;19943;-66
2023/07/29 07:40:33;;;;;;;;;;;19.60;96.50;;;;;;5087845;28;19944;-66
2023/07/29 07:42:58;;;;;;;;;;;19.60;96.60;;;;;;5087812;28;19916;-66
2023/07/29 07:45:24;;;;;;;;;;;19.70;96.60;;;;;;5103567;28;19968;-66
2023/07/29 07:47:51;;;;;;;;;;;19.70;96.50;;;;;;5107673;28;19918;-66
2023/07/29 07:50:16;;;;;;;;;;;19.70;96.50;;;;;;5107758;28;19916;-66
2023/07/29 07:52:42;;;;;;;;;;;19.70;96.40;;;;;;5107952;28;19964;-66
2023/07/29 07:55:08;;;;;;;;;;;19.80;96.40;;;;;;5106969;28;19976;-66
2023/07/29 07:57:33;;;;;;;;;;;19.70;96.40;;;;;;5107296;28;20351;-66
2023/07/29 07:59:59;;;;;;;;;;;19.80;96.30;;;;;;5098913;28;19921;-66
2023/07/29 08:02:24;;;;;;;;;;;19.80;96.30;;;;;;5086941;28;19946;-66
2023/07/29 08:04:50;;;;;;;;;;;19.80;96.30;;;;;;5088013;28;19995;-66
2023/07/29 08:07:15;;;;;;;;;;;19.90;96.30;;;;;;5086695;28;19969;-66
2023/07/29 08:09:41;;;;;;;;;;;19.90;96.30;;;;;;5087387;28;19912;-66
2023/07/29 08:12:06;;;;;;;;;;;19.90;96.10;;;;;;5069046;28;20321;-66
2023/07/29 08:14:33;;;;;;;;;;;20.00;96.10;;;;;;5088396;28;19926;-66
2023/07/29 08:16:58;;;;;;;;;;;20.00;96.00;;;;;;5086866;28;20272;-66
2023/07/29 08:19:24;;;;;;;;;;;20.10;96.10;;;;;;5068331;28;19916;-66
2023/07/29 08:21:49;;;;;;;;;;;20.10;96.00;;;;;;5089864;28;19915;-66
2023/07/29 08:24:15;;;;;;;;;;;20.10;96.00;;;;;;5095563;28;19920;-67
2023/07/29 08:26:40;;;;;;;;;;;20.10;96.00;;;;;;5110618;28;19915;-66
2023/07/29 08:29:06;;;;;;;;;;;20.10;96.00;;;;;;5091496;28;19951;-66
2023/07/29 08:31:33;;;;;;;;;;;20.10;95.90;;;;;;5105949;28;20653;-66
2023/07/29 08:33:59;;;;;;;;;;;20.20;95.90;;;;;;5075584;28;20321;-66
2023/07/29 08:36:24;;;;;;;;;;;20.10;95.90;;;;;;5089707;28;19968;-66
2023/07/29 08:38:50;;;;;;;;;;;20.20;95.80;;;;;;5090143;28;20265;-66
2023/07/29 08:41:22;;;;;;;;;;;20.20;95.80;;;;;;5071835;28;19912;-66
2023/07/29 08:43:52;;;;;;;;;;;20.20;95.70;;;;;;5090012;28;20763;-66
2023/07/29 08:46:19;;;;;;;;;;;20.20;95.70;;;;;;5106951;28;19919;-66
2023/07/29 08:48:45;;;;;;;;;;;20.30;95.60;;;;;;5102279;28;19912;-67
2023/07/29 08:51:11;;;;;;;;;;;20.30;95.60;;;;;;5069035;28;19913;-67
2023/07/29 08:53:37;;;;;;;;;;;20.30;95.60;;;;;;5085417;28;19919;-66
2023/07/29 08:56:04;;;;;;;;;;;20.30;95.50;;;;;;5088819;28;19960;-66
2023/07/29 08:58:30;;;;;;;;;;;20.40;95.40;;;;;;5087974;28;20350;-66
2023/07/29 09:00:56;;;;;;;;;;;20.40;95.40;;;;;;5089647;28;19908;-68
2023/07/29 09:03:22;;;;;;;;;;;20.50;95.50;;;;;;5089326;28;20365;-66
2023/07/29 09:05:47;;;;;;;;;;;20.50;95.30;;;;;;5089461;28;19965;-67
2023/07/29 09:08:13;;;;;;;;;;;20.50;95.20;;;;;;5089330;28;20070;-67
2023/07/29 09:10:39;;;;;;;;;;;20.60;95.10;;;;;;5089849;28;20598;-66
2023/07/29 09:13:05;;;;;;;;;;;20.60;95.10;;;;;;5090097;28;19912;-66
2023/07/29 09:15:32;;;;;;;;;;;20.60;95.00;;;;;;5070997;28;19912;-66
2023/07/29 09:17:57;;;;;;;;;;;20.60;95.00;;;;;;5096959;28;19918;-66
2023/07/29 09:20:27;;;;;;;;;;;20.60;94.80;;;;;;5091996;28;19907;-66
2023/07/29 09:22:57;;;;;;;;;;;20.60;95.00;;;;;;5110077;28;19978;-67
2023/07/29 09:25:26;;;;;;;;;;;20.70;94.80;;;;;;5108981;28;19942;-67
2023/07/29 09:27:52;;;;;;;;;;;20.70;94.90;;;;;;5109850;28;19912;-67
2023/07/29 09:30:18;;;;;;;;;;;20.70;94.80;;;;;;5109002;28;19963;-66
2023/07/29 09:32:43;;;;;;;;;;;20.80;94.80;;;;;;5097628;28;20003;-66
2023/07/29 09:35:12;;;;;;;;;;;20.80;94.80;;;;;;5100096;28;19972;-66
2023/07/29 09:37:38;;;;;;;;;;;20.80;94.80;;;;;;5109316;28;19988;-66
2023/07/29 09:40:04;;;;;;;;;;;20.80;94.80;;;;;;5108717;28;19908;-66
2023/07/29 09:42:30;;;;;;;;;;;20.80;94.60;;;;;;5098853;28;19915;-66
2023/07/29 09:44:55;;;;;;;;;;;20.90;94.70;;;;;;5088056;28;19908;-66
2023/07/29 09:47:22;;;;;;;;;;;20.90;94.70;;;;;;5088881;28;19931;-66
2023/07/29 09:49:48;;;;;;;;;;;21.00;94.50;;;;;;5088820;28;19916;-66
2023/07/29 09:52:17;;;;;;;;;;;21.10;94.50;;;;;;5108582;28;19950;-66
2023/07/29 09:54:44;;;;;;;;;;;21.10;94.50;;;;;;5090375;28;19915;-66
2023/07/29 09:57:10;;;;;;;;;;;21.10;94.50;;;;;;5109249;28;19912;-66
2023/07/29 09:59:36;;;;;;;;;;;21.10;94.40;;;;;;5087794;28;20276;-66
2023/07/29 10:02:01;;;;;;;;;;;21.20;94.30;;;;;;5086517;28;19908;-66
2023/07/29 10:04:28;;;;;;;;;;;21.20;94.50;;;;;;5089241;28;19919;-66
2023/07/29 10:06:53;;;;;;;;;;;21.20;94.20;;;;;;5089573;28;19916;-66
2023/07/29 10:09:20;;;;;;;;;;;21.20;94.50;;;;;;5088689;28;19938;-66
2023/07/29 10:11:46;;;;;;;;;;;21.20;94.40;;;;;;5088964;28;19996;-66
2023/07/29 10:14:11;;;;;;;;;;;21.30;94.30;;;;;;5088744;28;20376;-66
2023/07/29 10:16:37;;;;;;;;;;;21.30;94.30;;;;;;5088427;28;19916;-66
2023/07/29 10:19:04;;;;;;;;;;;21.30;94.20;;;;;;5088738;28;19919;-66
2023/07/29 10:21:30;;;;;;;;;;;21.30;94.20;;;;;;5088498;28;20284;-66
2023/07/29 10:24:00;;;;;;;;;;;21.40;94.20;;;;;;5090892;28;20002;-66
2023/07/29 10:26:27;;;;;;;;;;;21.50;94.10;;;;;;5107450;28;19965;-67
2023/07/29 10:28:54;;;;;;;;;;;21.60;93.80;;;;;;5108827;28;20021;-66
2023/07/29 10:31:21;;;;;;;;;;;21.70;93.80;;;;;;5107476;28;19944;-66
2023/07/29 10:33:46;;;;;;;;;;;21.80;93.70;;;;;;5072332;28;20408;-66
2023/07/29 10:36:12;;;;;;;;;;;21.80;93.90;;;;;;5087991;28;20035;-66
2023/07/29 10:38:38;;;;;;;;;;;21.90;93.50;;;;;;5088390;28;20330;-66
2023/07/29 10:41:03;;;;;;;;;;;21.90;94.20;;;;;;5108469;28;19911;-66
2023/07/29 10:43:33;;;;;;;;;;;22.00;94.20;;;;;;5108613;28;19912;-66
2023/07/29 10:46:16;;;;;;;;;;;22.10;93.60;;;;;;5108185;28;19916;-66
2023/07/29 10:48:43;;;;;;;;;;;22.20;93.20;;;;;;5108687;28;19911;-66
2023/07/29 10:51:29;;;;;;;;;;;22.30;93.30;;;;;;5108840;28;20356;-66
2023/07/29 10:54:11;;;;;;;;;;;22.40;93.20;;;;;;5105502;28;19912;-66
2023/07/29 10:56:40;;;;;;;;;;;22.50;93.30;;;;;;5090560;28;19919;-66
2023/07/29 10:59:12;;;;;;;;;;;22.60;93.30;;;;;;5075242;28;19916;-67
2023/07/29 11:01:38;;;;;;;;;;;22.70;93.50;;;;;;5082146;28;20022;-66
2023/07/29 11:04:26;;;;;;;;;;;22.80;93.20;;;;;;5085583;28;20420;-66
2023/07/29 11:07:04;;;;;;;;;;;22.70;93.20;;;;;;5087020;28;19909;-67
2023/07/29 11:09:42;;;;;;;;;;;22.70;93.20;;;;;;5087931;28;19916;-66
2023/07/29 11:12:27;;;;;;;;;;;22.80;93.60;;;;;;5088863;28;19994;-66
2023/07/29 11:14:52;;;;;;;;;;;22.80;93.50;;;;;;5087460;28;19926;-66
2023/07/29 11:17:18;;;;;;;;;;;22.80;93.90;;;;;;5086674;28;19916;-66
2023/07/29 11:19:44;;;;;;;;;;;22.80;93.80;;;;;;5087186;28;19938;-66
2023/07/29 11:22:10;;;;;;;;;;;22.80;93.60;;;;;;5087376;28;20003;-66
2023/07/29 11:24:35;;;;;;;;;;;22.90;93.60;;;;;;5092956;28;20002;-66
2023/07/29 11:27:01;;;;;;;;;;;23.00;93.50;;;;;;5106459;28;19915;-67
2023/07/29 11:29:26;;;;;;;;;;;23.10;93.20;;;;;;5088105;28;19915;-66
2023/07/29 11:31:52;;;;;;;;;;;23.20;92.80;;;;;;5087547;28;20380;-66
2023/07/29 11:34:20;;;;;;;;;;;23.20;93.50;;;;;;5087746;28;20439;-66
2023/07/29 11:36:46;;;;;;;;;;;23.40;93.20;;;;;;5091941;28;20053;-66
2023/07/29 11:39:11;;;;;;;;;;;23.50;93.00;;;;;;5104185;28;20624;-66
2023/07/29 11:41:37;;;;;;;;;;;23.50;92.90;;;;;;5086915;28;20721;-66
2023/07/29 11:44:02;;;;;;;;;;;23.50;92.60;;;;;;5088199;28;20457;-66
2023/07/29 11:46:28;;;;;;;;;;;23.40;92.80;;;;;;5087179;28;19916;-66
2023/07/29 11:48:54;;;;;;;;;;;23.40;92.60;;;;;;5087575;28;20519;-66
2023/07/29 11:51:19;;;;;;;;;;;23.30;92.70;;;;;;5087401;28;20565;-66
2023/07/29 11:53:45;;;;;;;;;;;23.30;92.90;;;;;;5090325;28;19918;-66
2023/07/29 11:56:12;;;;;;;;;;;23.30;92.70;;;;;;5111321;28;19922;-66
2023/07/29 11:58:38;;;;;;;;;;;23.30;93.50;;;;;;5111917;28;19923;-66
2023/07/29 12:01:05;;;;;;;;;;;23.30;93.10;;;;;;5097837;28;19916;-66
2023/07/29 12:03:30;;;;;;;;;;;23.30;93.00;;;;;;5090824;28;19912;-66
2023/07/29 12:05:56;;;;;;;;;;;23.30;93.20;;;;;;5090926;28;20367;-66
2023/07/29 12:08:22;;;;;;;;;;;23.30;93.10;;;;;;5091437;28;20470;-66
2023/07/29 12:10:48;;;;;;;;;;;23.40;93.00;;;;;;5091287;28;19919;-66
2023/07/29 12:13:14;;;;;;;;;;;23.40;92.40;;;;;;5091008;28;19912;-66
2023/07/29 12:15:40;;;;;;;;;;;23.40;92.60;;;;;;5090637;28;19916;-66
2023/07/29 12:18:06;;;;;;;;;;;23.50;92.50;;;;;;5092060;28;19916;-67
2023/07/29 12:20:31;;;;;;;;;;;23.60;92.30;;;;;;5090719;28;19938;-66
2023/07/29 12:22:57;;;;;;;;;;;23.60;92.00;;;;;;5090966;28;19912;-67
2023/07/29 12:25:23;;;;;;;;;;;23.60;92.10;;;;;;5104725;28;19994;-66
2023/07/29 12:27:49;;;;;;;;;;;23.60;92.30;;;;;;5111417;28;20006;-68
2023/07/29 12:30:15;;;;;;;;;;;23.60;92.60;;;;;;5110802;28;19912;-68
2023/07/29 12:32:44;;;;;;;;;;;23.70;92.30;;;;;;5099020;28;20280;-67
2023/07/29 12:35:10;;;;;;;;;;;23.90;92.90;;;;;;5091885;28;20007;-67
2023/07/29 12:37:35;;;;;;;;;;;23.90;92.20;;;;;;5090360;28;20027;-67
2023/07/29 12:40:02;;;;;;;;;;;24.00;92.20;;;;;;5091038;28;19915;-68
2023/07/29 12:42:27;;;;;;;;;;;24.10;91.80;;;;;;5090611;28;20346;-69
2023/07/29 12:44:53;;;;;;;;;;;24.30;92.10;;;;;;5090831;28;19966;-68
2023/07/29 12:47:18;;;;;;;;;;;24.30;91.20;;;;;;5090122;28;19916;-67
2023/07/29 12:49:43;;;;;;;;;;;24.30;90.80;;;;;;5074534;28;19969;-68
2023/07/29 12:52:09;;;;;;;;;;;24.30;91.10;;;;;;5097829;28;20416;-67
2023/07/29 12:54:34;;;;;;;;;;;24.20;91.70;;;;;;5097721;28;19915;-66
2023/07/29 12:57:00;;;;;;;;;;;24.20;91.50;;;;;;5110409;28;20402;-67
2023/07/29 12:59:26;;;;;;;;;;;24.20;91.70;;;;;;5110132;28;19977;-67
2023/07/29 13:01:51;;;;;;;;;;;24.10;92.00;;;;;;5089518;28;19914;-67
2023/07/29 13:04:16;;;;;;;;;;;24.10;92.30;;;;;;5090089;28;19912;-67
2023/07/29 13:06:42;;;;;;;;;;;24.10;92.50;;;;;;5090505;28;20031;-67
2023/07/29 13:09:08;;;;;;;;;;;24.10;91.80;;;;;;5071887;28;19923;-67
2023/07/29 13:11:33;;;;;;;;;;;24.20;91.70;;;;;;5090003;28;19912;-67
2023/07/29 13:14:00;;;;;;;;;;;24.40;91.80;;;;;;5090155;28;20387;-67
2023/07/29 13:16:26;;;;;;;;;;;24.50;91.50;;;;;;5089589;28;19916;-67
2023/07/29 13:18:51;;;;;;;;;;;24.70;91.50;;;;;;5089861;28;19931;-67
2023/07/29 13:21:17;;;;;;;;;;;24.70;90.60;;;;;;5071437;28;19919;-67
2023/07/29 13:23:42;;;;;;;;;;;24.80;91.10;;;;;;5091081;28;20027;-67
2023/07/29 13:26:08;;;;;;;;;;;24.80;91.20;;;;;;5109495;28;19930;-67
2023/07/29 13:28:33;;;;;;;;;;;24.80;90.80;;;;;;5091798;28;19915;-67
2023/07/29 13:30:59;;;;;;;;;;;24.90;90.90;;;;;;5099071;28;19920;-67
2023/07/29 13:33:24;;;;;;;;;;;24.90;90.70;;;;;;5089605;28;19914;-67
2023/07/29 13:35:50;;;;;;;;;;;25.00;90.40;;;;;;5089365;28;19916;-67
2023/07/29 13:38:16;;;;;;;;;;;25.10;90.40;;;;;;5089487;28;19959;-67
2023/07/29 13:40:41;;;;;;;;;;;25.00;90.40;;;;;;5089517;28;20376;-67
2023/07/29 13:43:07;;;;;;;;;;;25.00;90.30;;;;;;5089224;28;19912;-67
2023/07/29 13:45:33;;;;;;;;;;;25.00;90.40;;;;;;5089262;28;19923;-67
2023/07/29 13:47:59;;;;;;;;;;;25.00;90.50;;;;;;5089170;28;19916;-67
2023/07/29 13:50:24;;;;;;;;;;;24.90;90.80;;;;;;5094937;28;20379;-68
2023/07/29 13:52:50;;;;;;;;;;;24.90;91.00;;;;;;5091285;28;19916;-67
2023/07/29 13:55:15;;;;;;;;;;;24.80;91.00;;;;;;5108634;28;19961;-67
2023/07/29 13:57:41;;;;;;;;;;;24.70;90.80;;;;;;5094415;28;20564;-67
2023/07/29 14:00:08;;;;;;;;;;;24.70;91.40;;;;;;5088686;28;19912;-68
2023/07/29 14:02:33;;;;;;;;;;;24.60;91.00;;;;;;5088176;28;19948;-67
2023/07/29 14:04:59;;;;;;;;;;;24.50;91.70;;;;;;5088996;28;19996;-67
2023/07/29 14:07:24;;;;;;;;;;;24.50;91.60;;;;;;5089246;28;19919;-67
2023/07/29 14:09:50;;;;;;;;;;;24.40;91.40;;;;;;5078905;28;20017;-67